Terminal Aerodrome Forecast
Issued by NWS

Home | Current Version | Previous Version | Graphics & Text | Print | Product List | Glossary On
Versions: 1 2 3 4 5 6 7 8 9 10 11 12 13 14 15 16 17 18
000
FTUS43 KICT 261403 AAA
TAFRSL
TAF AMD
KRSL 261403Z 2614/2712 02007KT P6SM VCSH SCT010 OVC025
      TEMPO 2614/2616 -RA BKN007
     FM261600 03007KT P6SM SCT020 BKN250
     FM261700 13007KT P6SM BKN025 OVC150
     FM262000 15007KT P6SM OVC040=

USA.gov is the U.S. government's official web portal to all federal, state and local government web resources and services.